Fassett, Pennsylvania
Current Conditions -  °F | °C
As of 5:06 AM on Thursday 27 Nov 2014 (Local Time) from KELM Reporting Station
Light Snow Light Snow  
Wind Chill: 30°   Ceiling: 1700
Heat Index: 30°   Visibility: 3mi
Dew Point: 28°   Wind: 0mph
Humidity: 92%   Direction: NA
Pressure: 29.98"   Gusts: NA
Location:  41.9519°N, 76.7808°W
Report Text: KELM 271006Z AUTO 00000KT 3SM -SN BR OVC017 M01/M02 A2998 RMK AO2 P0000 T10111022
Loading
Personal Weather Stations






























Interactive Weather Map New forecast layout! Learn more

10-Day Weather Forecast

Advertisements
Track Severe Weather on mobile